sensor_id;sensor_type;location;lat;lon;timestamp;P1;durP1;ratioP1;P2;durP2;ratioP2
10761;SDS011;5433;50.862;4.320;2024-03-23T02:04:49;13.63;;;6.22;;
10761;SDS011;5433;50.862;4.320;2024-03-23T02:07:15;16.10;;;7.03;;
10761;SDS011;5433;50.862;4.320;2024-03-23T02:09:44;15.65;;;7.25;;
10761;SDS011;5433;50.862;4.320;2024-03-23T02:12:10;16.33;;;7.53;;
10761;SDS011;5433;50.862;4.320;2024-03-23T02:14:36;15.20;;;7.13;;
10761;SDS011;5433;50.862;4.320;2024-03-23T02:17:02;15.10;;;7.88;;
10761;SDS011;5433;50.862;4.320;2024-03-23T02:19:28;18.23;;;7.90;;
10761;SDS011;5433;50.862;4.320;2024-03-23T02:21:55;17.27;;;7.75;;
10761;SDS011;5433;50.862;4.320;2024-03-23T02:24:21;20.77;;;8.85;;
10761;SDS011;5433;50.862;4.320;2024-03-23T02:26:47;18.95;;;8.75;;
10761;SDS011;5433;50.862;4.320;2024-03-23T02:29:13;19.83;;;9.27;;
10761;SDS011;5433;50.862;4.320;2024-03-23T02:31:39;19.70;;;9.60;;
10761;SDS011;5433;50.862;4.320;2024-03-23T02:34:06;19.13;;;9.25;;
10761;SDS011;5433;50.862;4.320;2024-03-23T02:36:32;18.38;;;9.63;;
10761;SDS011;5433;50.862;4.320;2024-03-23T02:38:58;19.42;;;10.38;;
10761;SDS011;5433;50.862;4.320;2024-03-23T02:41:24;21.08;;;9.93;;
10761;SDS011;5433;50.862;4.320;2024-03-23T02:43:50;20.15;;;10.38;;
10761;SDS011;5433;50.862;4.320;2024-03-23T02:46:16;21.10;;;10.25;;
10761;SDS011;5433;50.862;4.320;2024-03-23T02:48:42;20.88;;;10.20;;
10761;SDS011;5433;50.862;4.320;2024-03-23T02:51:08;21.63;;;10.32;;
10761;SDS011;5433;50.862;4.320;2024-03-23T02:53:34;24.10;;;10.05;;
10761;SDS011;5433;50.862;4.320;2024-03-23T02:56:01;24.02;;;10.70;;
10761;SDS011;5433;50.862;4.320;2024-03-23T02:58:28;22.63;;;10.45;;
10761;SDS011;5433;50.862;4.320;2024-03-23T03:00:56;22.48;;;11.05;;
10761;SDS011;5433;50.862;4.320;2024-03-23T03:03:23;22.13;;;10.48;;
10761;SDS011;5433;50.862;4.320;2024-03-23T03:16:12;21.77;;;10.70;;
10761;SDS011;5433;50.862;4.320;2024-03-23T03:18:39;22.60;;;10.82;;
10761;SDS011;5433;50.862;4.320;2024-03-23T03:21:07;22.08;;;10.55;;
10761;SDS011;5433;50.862;4.320;2024-03-23T03:23:37;24.73;;;10.57;;
10761;SDS011;5433;50.862;4.320;2024-03-23T03:26:04;21.33;;;10.25;;
10761;SDS011;5433;50.862;4.320;2024-03-23T03:28:31;22.90;;;11.00;;
10761;SDS011;5433;50.862;4.320;2024-03-23T03:30:58;24.83;;;10.18;;
10761;SDS011;5433;50.862;4.320;2024-03-23T03:33:24;22.50;;;10.73;;
10761;SDS011;5433;50.862;4.320;2024-03-23T03:35:50;21.40;;;10.40;;
10761;SDS011;5433;50.862;4.320;2024-03-23T03:38:20;22.77;;;9.88;;
10761;SDS011;5433;50.862;4.320;2024-03-23T03:40:46;17.85;;;10.43;;
10761;SDS011;5433;50.862;4.320;2024-03-23T03:43:12;21.05;;;10.45;;
10761;SDS011;5433;50.862;4.320;2024-03-23T03:45:38;22.27;;;10.85;;
10761;SDS011;5433;50.862;4.320;2024-03-23T03:48:04;21.58;;;10.80;;
10761;SDS011;5433;50.862;4.320;2024-03-23T03:53:34;22.58;;;10.82;;
10761;SDS011;5433;50.862;4.320;2024-03-23T03:56:00;23.50;;;11.30;;
10761;SDS011;5433;50.862;4.320;2024-03-23T03:58:27;20.98;;;11.38;;
10761;SDS011;5433;50.862;4.320;2024-03-23T04:00:53;21.58;;;11.10;;
10761;SDS011;5433;50.862;4.320;2024-03-23T04:03:19;19.65;;;10.43;;
10761;SDS011;5433;50.862;4.320;2024-03-23T04:05:52;19.55;;;10.45;;
10761;SDS011;5433;50.862;4.320;2024-03-23T04:08:18;19.40;;;10.68;;
10761;SDS011;5433;50.862;4.320;2024-03-23T04:10:44;21.75;;;11.02;;
10761;SDS011;5433;50.862;4.320;2024-03-23T04:13:14;21.65;;;10.13;;
10761;SDS011;5433;50.862;4.320;2024-03-23T04:15:40;20.55;;;10.65;;
10761;SDS011;5433;50.862;4.320;2024-03-23T04:18:09;19.60;;;9.63;;
10761;SDS011;5433;50.862;4.320;2024-03-23T04:23:40;20.63;;;9.55;;
10761;SDS011;5433;50.862;4.320;2024-03-23T04:26:06;23.10;;;9.38;;
10761;SDS011;5433;50.862;4.320;2024-03-23T04:28:32;16.02;;;8.68;;
10761;SDS011;5433;50.862;4.320;2024-03-23T04:31:02;16.30;;;8.40;;
10761;SDS011;5433;50.862;4.320;2024-03-23T04:33:28;15.23;;;7.70;;
10761;SDS011;5433;50.862;4.320;2024-03-23T04:35:54;16.83;;;8.20;;
10761;SDS011;5433;50.862;4.320;2024-03-23T04:38:21;17.38;;;7.78;;
10761;SDS011;5433;50.862;4.320;2024-03-23T04:40:56;18.05;;;7.57;;
10761;SDS011;5433;50.862;4.320;2024-03-23T04:43:29;16.80;;;7.60;;
10761;SDS011;5433;50.862;4.320;2024-03-23T04:45:56;13.20;;;6.68;;
10761;SDS011;5433;50.862;4.320;2024-03-23T04:48:23;14.27;;;7.07;;
10761;SDS011;5433;50.862;4.320;2024-03-23T04:50:54;15.88;;;6.95;;
10761;SDS011;5433;50.862;4.320;2024-03-23T04:53:22;12.85;;;6.40;;
10761;SDS011;5433;50.862;4.320;2024-03-23T04:55:56;12.52;;;6.55;;
10761;SDS011;5433;50.862;4.320;2024-03-23T04:58:32;20.55;;;6.85;;
10761;SDS011;5433;50.862;4.320;2024-03-23T05:00:58;13.48;;;6.18;;
10761;SDS011;5433;50.862;4.320;2024-03-23T05:03:24;13.93;;;6.45;;
10761;SDS011;5433;50.862;4.320;2024-03-23T05:05:50;11.25;;;6.00;;
10761;SDS011;5433;50.862;4.320;2024-03-23T05:08:16;15.23;;;6.68;;
10761;SDS011;5433;50.862;4.320;2024-03-23T05:10:44;12.60;;;6.25;;
10761;SDS011;5433;50.862;4.320;2024-03-23T05:13:11;14.25;;;6.50;;
10761;SDS011;5433;50.862;4.320;2024-03-23T05:15:42;12.45;;;6.70;;
10761;SDS011;5433;50.862;4.320;2024-03-23T05:18:13;11.68;;;6.50;;
10761;SDS011;5433;50.862;4.320;2024-03-23T05:20:40;12.70;;;6.93;;
10761;SDS011;5433;50.862;4.320;2024-03-23T05:23:08;16.15;;;6.97;;
10761;SDS011;5433;50.862;4.320;2024-03-23T05:25:34;12.00;;;6.65;;
10761;SDS011;5433;50.862;4.320;2024-03-23T05:28:00;17.67;;;6.63;;
10761;SDS011;5433;50.862;4.320;2024-03-23T05:30:28;12.05;;;6.40;;
10761;SDS011;5433;50.862;4.320;2024-03-23T05:32:54;15.75;;;6.53;;
10761;SDS011;5433;50.862;4.320;2024-03-23T05:35:25;12.43;;;5.93;;
10761;SDS011;5433;50.862;4.320;2024-03-23T05:37:52;11.18;;;5.88;;
10761;SDS011;5433;50.862;4.320;2024-03-23T05:40:18;14.07;;;6.20;;
10761;SDS011;5433;50.862;4.320;2024-03-23T05:42:44;12.93;;;6.30;;
10761;SDS011;5433;50.862;4.320;2024-03-23T05:45:13;13.50;;;5.72;;
10761;SDS011;5433;50.862;4.320;2024-03-23T05:47:44;14.27;;;5.00;;
10761;SDS011;5433;50.862;4.320;2024-03-23T05:50:10;11.05;;;5.18;;
10761;SDS011;5433;50.862;4.320;2024-03-23T05:52:38;12.00;;;5.20;;
10761;SDS011;5433;50.862;4.320;2024-03-23T05:55:04;11.18;;;4.65;;
10761;SDS011;5433;50.862;4.320;2024-03-23T05:57:30;12.05;;;4.35;;
10761;SDS011;5433;50.862;4.320;2024-03-23T05:59:56;11.60;;;4.07;;
10761;SDS011;5433;50.862;4.320;2024-03-23T06:02:23;12.15;;;4.00;;
10761;SDS011;5433;50.862;4.320;2024-03-23T06:07:53;10.00;;;3.20;;
10761;SDS011;5433;50.862;4.320;2024-03-23T06:10:19;12.45;;;3.22;;
10761;SDS011;5433;50.862;4.320;2024-03-23T06:12:48;12.25;;;3.17;;
10761;SDS011;5433;50.862;4.320;2024-03-23T06:15:17;8.88;;;2.63;;
10761;SDS011;5433;50.862;4.320;2024-03-23T06:17:46;16.17;;;3.30;;
10761;SDS011;5433;50.862;4.320;2024-03-23T06:20:15;8.55;;;3.05;;
10761;SDS011;5433;50.862;4.320;2024-03-23T06:22:42;9.23;;;2.70;;
10761;SDS011;5433;50.862;4.320;2024-03-23T06:25:08;8.77;;;2.58;;
10761;SDS011;5433;50.862;4.320;2024-03-23T06:27:34;8.65;;;2.42;;
10761;SDS011;5433;50.862;4.320;2024-03-23T06:30:00;9.55;;;2.85;;
10761;SDS011;5433;50.862;4.320;2024-03-23T06:32:27;13.68;;;3.08;;
10761;SDS011;5433;50.862;4.320;2024-03-23T06:34:56;10.38;;;3.03;;
10761;SDS011;5433;50.862;4.320;2024-03-23T06:37:22;9.13;;;2.40;;
10761;SDS011;5433;50.862;4.320;2024-03-23T06:39:48;11.35;;;2.95;;
10761;SDS011;5433;50.862;4.320;2024-03-23T06:42:14;10.00;;;2.92;;
10761;SDS011;5433;50.862;4.320;2024-03-23T06:44:40;8.45;;;2.45;;
10761;SDS011;5433;50.862;4.320;2024-03-23T06:47:07;13.73;;;2.60;;
10761;SDS011;5433;50.862;4.320;2024-03-23T06:49:34;7.15;;;2.85;;
10761;SDS011;5433;50.862;4.320;2024-03-23T06:52:00;11.30;;;2.95;;
10761;SDS011;5433;50.862;4.320;2024-03-23T06:54:26;14.98;;;3.03;;
10761;SDS011;5433;50.862;4.320;2024-03-23T06:56:59;11.35;;;2.90;;
10761;SDS011;5433;50.862;4.320;2024-03-23T06:59:25;11.40;;;2.85;;
10761;SDS011;5433;50.862;4.320;2024-03-23T07:01:51;10.68;;;2.83;;
10761;SDS011;5433;50.862;4.320;2024-03-23T07:04:18;4.68;;;2.25;;
10761;SDS011;5433;50.862;4.320;2024-03-23T07:06:45;8.73;;;2.78;;
10761;SDS011;5433;50.862;4.320;2024-03-23T07:09:11;7.35;;;2.38;;
10761;SDS011;5433;50.862;4.320;2024-03-23T07:11:37;6.63;;;2.00;;
10761;SDS011;5433;50.862;4.320;2024-03-23T07:14:03;5.30;;;2.10;;
10761;SDS011;5433;50.862;4.320;2024-03-23T07:16:29;7.15;;;1.98;;
10761;SDS011;5433;50.862;4.320;2024-03-23T07:18:55;5.47;;;1.80;;
10761;SDS011;5433;50.862;4.320;2024-03-23T07:21:21;5.22;;;2.05;;
10761;SDS011;5433;50.862;4.320;2024-03-23T07:23:48;7.25;;;2.67;;
10761;SDS011;5433;50.862;4.320;2024-03-23T07:26:14;9.15;;;2.70;;
10761;SDS011;5433;50.862;4.320;2024-03-23T07:28:40;8.50;;;2.70;;
10761;SDS011;5433;50.862;4.320;2024-03-23T07:31:09;6.93;;;2.60;;
10761;SDS011;5433;50.862;4.320;2024-03-23T07:33:48;7.13;;;2.90;;
10761;SDS011;5433;50.862;4.320;2024-03-23T07:36:14;10.48;;;3.10;;
10761;SDS011;5433;50.862;4.320;2024-03-23T07:38:41;9.27;;;3.10;;
10761;SDS011;5433;50.862;4.320;2024-03-23T07:41:11;9.70;;;3.22;;
10761;SDS011;5433;50.862;4.320;2024-03-23T07:43:37;11.68;;;2.92;;
10761;SDS011;5433;50.862;4.320;2024-03-23T07:46:05;11.77;;;3.35;;
10761;SDS011;5433;50.862;4.320;2024-03-23T07:51:35;10.38;;;3.00;;
10761;SDS011;5433;50.862;4.320;2024-03-23T07:54:04;10.88;;;3.17;;
10761;SDS011;5433;50.862;4.320;2024-03-23T07:56:30;9.07;;;2.75;;
10761;SDS011;5433;50.862;4.320;2024-03-23T07:58:57;12.18;;;3.05;;
10761;SDS011;5433;50.862;4.320;2024-03-23T08:01:23;11.68;;;3.28;;
10761;SDS011;5433;50.862;4.320;2024-03-23T08:03:49;11.02;;;2.88;;
10761;SDS011;5433;50.862;4.320;2024-03-23T08:06:16;8.57;;;2.60;;
10761;SDS011;5433;50.862;4.320;2024-03-23T08:08:43;10.88;;;2.85;;
10761;SDS011;5433;50.862;4.320;2024-03-23T08:11:10;15.13;;;3.33;;
10761;SDS011;5433;50.862;4.320;2024-03-23T08:13:36;8.10;;;2.47;;
10761;SDS011;5433;50.862;4.320;2024-03-23T08:16:03;13.05;;;3.08;;
10761;SDS011;5433;50.862;4.320;2024-03-23T08:18:29;7.15;;;2.85;;
10761;SDS011;5433;50.862;4.320;2024-03-23T08:21:05;7.43;;;2.72;;
10761;SDS011;5433;50.862;4.320;2024-03-23T08:23:32;11.60;;;3.03;;
10761;SDS011;5433;50.862;4.320;2024-03-23T08:26:02;7.15;;;2.45;;
10761;SDS011;5433;50.862;4.320;2024-03-23T08:28:29;10.05;;;2.92;;
10761;SDS011;5433;50.862;4.320;2024-03-23T08:30:55;9.75;;;2.92;;
10761;SDS011;5433;50.862;4.320;2024-03-23T08:33:22;8.20;;;2.50;;
10761;SDS011;5433;50.862;4.320;2024-03-23T08:38:23;5.53;;;2.30;;
10761;SDS011;5433;50.862;4.320;2024-03-23T08:40:59;10.82;;;2.53;;
10761;SDS011;5433;50.862;4.320;2024-03-23T08:43:25;10.05;;;2.42;;
10761;SDS011;5433;50.862;4.320;2024-03-23T08:46:03;7.60;;;2.40;;
10761;SDS011;5433;50.862;4.320;2024-03-23T08:48:29;8.90;;;2.40;;
10761;SDS011;5433;50.862;4.320;2024-03-23T08:51:07;7.55;;;2.50;;
10761;SDS011;5433;50.862;4.320;2024-03-23T08:53:35;6.57;;;2.17;;
10761;SDS011;5433;50.862;4.320;2024-03-23T08:56:05;8.07;;;2.60;;
10761;SDS011;5433;50.862;4.320;2024-03-23T08:58:32;8.32;;;2.70;;
10761;SDS011;5433;50.862;4.320;2024-03-23T09:01:08;5.53;;;2.42;;
10761;SDS011;5433;50.862;4.320;2024-03-23T09:03:34;8.77;;;2.20;;
10761;SDS011;5433;50.862;4.320;2024-03-23T09:06:00;7.85;;;2.15;;
10761;SDS011;5433;50.862;4.320;2024-03-23T09:08:26;8.45;;;2.20;;
10761;SDS011;5433;50.862;4.320;2024-03-23T09:13:56;7.57;;;2.30;;
10761;SDS011;5433;50.862;4.320;2024-03-23T09:16:22;8.45;;;2.50;;
10761;SDS011;5433;50.862;4.320;2024-03-23T09:18:48;9.30;;;2.78;;
10761;SDS011;5433;50.862;4.320;2024-03-23T09:21:14;7.28;;;2.28;;
10761;SDS011;5433;50.862;4.320;2024-03-23T09:23:42;6.50;;;2.40;;
10761;SDS011;5433;50.862;4.320;2024-03-23T09:26:09;8.05;;;2.40;;
10761;SDS011;5433;50.862;4.320;2024-03-23T09:28:35;10.40;;;2.70;;
10761;SDS011;5433;50.862;4.320;2024-03-23T09:31:04;8.25;;;2.58;;
10761;SDS011;5433;50.862;4.320;2024-03-23T09:33:30;8.80;;;2.60;;
10761;SDS011;5433;50.862;4.320;2024-03-23T09:35:56;8.38;;;2.38;;
10761;SDS011;5433;50.862;4.320;2024-03-23T09:38:23;6.13;;;2.47;;
10761;SDS011;5433;50.862;4.320;2024-03-23T09:43:53;5.65;;;2.40;;
10761;SDS011;5433;50.862;4.320;2024-03-23T09:46:19;6.22;;;2.58;;
10761;SDS011;5433;50.862;4.320;2024-03-23T09:48:46;7.60;;;2.50;;
10761;SDS011;5433;50.862;4.320;2024-03-23T09:51:12;6.60;;;2.67;;
10761;SDS011;5433;50.862;4.320;2024-03-23T09:53:38;7.10;;;2.85;;
10761;SDS011;5433;50.862;4.320;2024-03-23T09:56:04;7.35;;;2.38;;
10761;SDS011;5433;50.862;4.320;2024-03-23T09:58:30;5.45;;;2.70;;
10761;SDS011;5433;50.862;4.320;2024-03-23T10:00:59;5.72;;;2.92;;
10761;SDS011;5433;50.862;4.320;2024-03-23T10:03:25;6.82;;;3.20;;
10761;SDS011;5433;50.862;4.320;2024-03-23T10:06:01;5.80;;;2.70;;
10761;SDS011;5433;50.862;4.320;2024-03-23T10:08:30;7.80;;;2.88;;
10761;SDS011;5433;50.862;4.320;2024-03-23T10:10:58;5.82;;;2.50;;
10761;SDS011;5433;50.862;4.320;2024-03-23T10:13:33;5.93;;;2.38;;
10761;SDS011;5433;50.862;4.320;2024-03-23T10:15:59;4.63;;;2.20;;
10761;SDS011;5433;50.862;4.320;2024-03-23T10:18:26;5.45;;;2.20;;
10761;SDS011;5433;50.862;4.320;2024-03-23T10:29:33;5.68;;;2.20;;
10761;SDS011;5433;50.862;4.320;2024-03-23T10:32:09;6.53;;;1.85;;
10761;SDS011;5433;50.862;4.320;2024-03-23T10:37:33;7.28;;;2.05;;
10761;SDS011;5433;50.862;4.320;2024-03-23T10:39:59;6.85;;;2.17;;
10761;SDS011;5433;50.862;4.320;2024-03-23T10:42:25;8.27;;;2.15;;
10761;SDS011;5433;50.862;4.320;2024-03-23T10:44:51;3.63;;;1.50;;
10761;SDS011;5433;50.862;4.320;2024-03-23T10:47:18;4.82;;;1.67;;
10761;SDS011;5433;50.862;4.320;2024-03-23T10:49:44;5.22;;;1.70;;
10761;SDS011;5433;50.862;4.320;2024-03-23T10:52:13;5.38;;;1.52;;
10761;SDS011;5433;50.862;4.320;2024-03-23T10:54:39;5.45;;;1.58;;
10761;SDS011;5433;50.862;4.320;2024-03-23T10:59:33;5.45;;;1.52;;
10761;SDS011;5433;50.862;4.320;2024-03-23T11:02:06;5.38;;;1.52;;
10761;SDS011;5433;50.862;4.320;2024-03-23T11:04:34;6.70;;;1.70;;
10761;SDS011;5433;50.862;4.320;2024-03-23T11:07:00;3.28;;;1.52;;
10761;SDS011;5433;50.862;4.320;2024-03-23T11:12:17;4.05;;;1.40;;
10761;SDS011;5433;50.862;4.320;2024-03-23T11:14:43;4.13;;;1.17;;
10761;SDS011;5433;50.862;4.320;2024-03-23T11:17:09;4.20;;;1.50;;
10761;SDS011;5433;50.862;4.320;2024-03-23T11:19:36;4.43;;;1.40;;
10761;SDS011;5433;50.862;4.320;2024-03-23T11:22:02;5.50;;;1.70;;
10761;SDS011;5433;50.862;4.320;2024-03-23T11:24:28;7.63;;;1.48;;
10761;SDS011;5433;50.862;4.320;2024-03-23T11:26:57;5.07;;;1.45;;
10761;SDS011;5433;50.862;4.320;2024-03-23T11:29:29;4.90;;;1.40;;
10761;SDS011;5433;50.862;4.320;2024-03-23T11:31:55;4.75;;;1.38;;
10761;SDS011;5433;50.862;4.320;2024-03-23T11:34:21;4.80;;;1.55;;
10761;SDS011;5433;50.862;4.320;2024-03-23T11:36:48;4.88;;;1.40;;
10761;SDS011;5433;50.862;4.320;2024-03-23T11:39:19;4.32;;;1.20;;
10761;SDS011;5433;50.862;4.320;2024-03-23T11:44:21;2.47;;;1.17;;
10761;SDS011;5433;50.862;4.320;2024-03-23T11:46:50;4.07;;;1.40;;
10761;SDS011;5433;50.862;4.320;2024-03-23T11:49:23;5.88;;;1.60;;
10761;SDS011;5433;50.862;4.320;2024-03-23T11:51:50;3.97;;;1.40;;
10761;SDS011;5433;50.862;4.320;2024-03-23T11:54:19;3.97;;;1.23;;
10761;SDS011;5433;50.862;4.320;2024-03-23T11:59:31;4.10;;;1.23;;
10761;SDS011;5433;50.862;4.320;2024-03-23T12:01:57;6.10;;;1.70;;
10761;SDS011;5433;50.862;4.320;2024-03-23T12:04:27;6.03;;;1.55;;
10761;SDS011;5433;50.862;4.320;2024-03-23T12:09:38;4.72;;;1.48;;
10761;SDS011;5433;50.862;4.320;2024-03-23T12:12:05;3.80;;;1.02;;
10761;SDS011;5433;50.862;4.320;2024-03-23T12:17:42;3.28;;;1.30;;
10761;SDS011;5433;50.862;4.320;2024-03-23T12:20:08;4.03;;;1.35;;
10761;SDS011;5433;50.862;4.320;2024-03-23T12:22:34;3.42;;;1.45;;
10761;SDS011;5433;50.862;4.320;2024-03-23T12:25:00;2.45;;;1.00;;
10761;SDS011;5433;50.862;4.320;2024-03-23T12:27:26;3.80;;;1.23;;
10761;SDS011;5433;50.862;4.320;2024-03-23T12:29:52;3.75;;;0.80;;
10761;SDS011;5433;50.862;4.320;2024-03-23T12:32:18;3.25;;;1.20;;
10761;SDS011;5433;50.862;4.320;2024-03-23T12:34:45;4.80;;;1.50;;
10761;SDS011;5433;50.862;4.320;2024-03-23T12:37:12;4.05;;;1.52;;
10761;SDS011;5433;50.862;4.320;2024-03-23T12:39:38;5.75;;;1.30;;
10761;SDS011;5433;50.862;4.320;2024-03-23T12:42:04;3.72;;;1.20;;
10761;SDS011;5433;50.862;4.320;2024-03-23T12:44:30;2.80;;;1.30;;
10761;SDS011;5433;50.862;4.320;2024-03-23T12:46:56;5.40;;;1.60;;
10761;SDS011;5433;50.862;4.320;2024-03-23T12:49:22;5.30;;;1.20;;
10761;SDS011;5433;50.862;4.320;2024-03-23T12:51:55;5.32;;;1.27;;
10761;SDS011;5433;50.862;4.320;2024-03-23T12:54:22;4.38;;;1.15;;
10761;SDS011;5433;50.862;4.320;2024-03-23T12:56:48;5.93;;;1.33;;
10761;SDS011;5433;50.862;4.320;2024-03-23T12:59:14;7.30;;;1.70;;
10761;SDS011;5433;50.862;4.320;2024-03-23T13:01:41;2.92;;;1.17;;
10761;SDS011;5433;50.862;4.320;2024-03-23T13:04:08;3.72;;;0.90;;
10761;SDS011;5433;50.862;4.320;2024-03-23T13:06:34;2.75;;;1.13;;
10761;SDS011;5433;50.862;4.320;2024-03-23T13:09:01;3.03;;;1.50;;
10761;SDS011;5433;50.862;4.320;2024-03-23T13:11:28;2.55;;;1.10;;
10761;SDS011;5433;50.862;4.320;2024-03-23T13:13:54;3.42;;;1.27;;
10761;SDS011;5433;50.862;4.320;2024-03-23T13:16:20;2.45;;;1.20;;
10761;SDS011;5433;50.862;4.320;2024-03-23T13:18:46;4.20;;;1.58;;
10761;SDS011;5433;50.862;4.320;2024-03-23T13:21:12;6.68;;;2.75;;
10761;SDS011;5433;50.862;4.320;2024-03-23T13:23:38;4.72;;;1.50;;
10761;SDS011;5433;50.862;4.320;2024-03-23T13:26:07;4.72;;;1.20;;
10761;SDS011;5433;50.862;4.320;2024-03-23T13:28:33;2.63;;;1.38;;
10761;SDS011;5433;50.862;4.320;2024-03-23T13:31:01;4.45;;;1.05;;
10761;SDS011;5433;50.862;4.320;2024-03-23T13:33:30;4.45;;;1.13;;
10761;SDS011;5433;50.862;4.320;2024-03-23T13:35:57;3.88;;;1.30;;
10761;SDS011;5433;50.862;4.320;2024-03-23T13:38:23;6.28;;;1.63;;
10761;SDS011;5433;50.862;4.320;2024-03-23T13:40:52;5.60;;;1.35;;
10761;SDS011;5433;50.862;4.320;2024-03-23T13:43:18;5.57;;;1.33;;
10761;SDS011;5433;50.862;4.320;2024-03-23T13:45:46;3.70;;;1.38;;
10761;SDS011;5433;50.862;4.320;2024-03-23T13:48:12;5.57;;;1.60;;
10761;SDS011;5433;50.862;4.320;2024-03-23T13:50:38;4.55;;;1.30;;
10761;SDS011;5433;50.862;4.320;2024-03-23T13:53:04;5.20;;;1.30;;
10761;SDS011;5433;50.862;4.320;2024-03-23T13:55:31;6.38;;;1.50;;
10761;SDS011;5433;50.862;4.320;2024-03-23T13:57:57;3.72;;;1.10;;
10761;SDS011;5433;50.862;4.320;2024-03-23T14:00:23;4.22;;;1.10;;
10761;SDS011;5433;50.862;4.320;2024-03-23T14:02:49;3.88;;;1.15;;
10761;SDS011;5433;50.862;4.320;2024-03-23T14:05:15;3.53;;;1.10;;
10761;SDS011;5433;50.862;4.320;2024-03-23T14:07:41;2.85;;;1.10;;
10761;SDS011;5433;50.862;4.320;2024-03-23T14:10:07;3.92;;;1.35;;
10761;SDS011;5433;50.862;4.320;2024-03-23T14:12:35;4.80;;;1.50;;
10761;SDS011;5433;50.862;4.320;2024-03-23T14:15:05;4.47;;;1.25;;
10761;SDS011;5433;50.862;4.320;2024-03-23T14:17:31;4.60;;;1.50;;
10761;SDS011;5433;50.862;4.320;2024-03-23T14:19:57;6.20;;;1.40;;
10761;SDS011;5433;50.862;4.320;2024-03-23T14:22:26;4.10;;;1.33;;
10761;SDS011;5433;50.862;4.320;2024-03-23T14:24:52;5.13;;;1.77;;
10761;SDS011;5433;50.862;4.320;2024-03-23T14:27:18;5.03;;;1.35;;
10761;SDS011;5433;50.862;4.320;2024-03-23T14:29:47;5.82;;;1.45;;
10761;SDS011;5433;50.862;4.320;2024-03-23T14:32:13;5.32;;;1.60;;
10761;SDS011;5433;50.862;4.320;2024-03-23T14:34:40;5.38;;;1.40;;
10761;SDS011;5433;50.862;4.320;2024-03-23T14:37:06;7.15;;;1.50;;
10761;SDS011;5433;50.862;4.320;2024-03-23T14:39:32;5.28;;;1.30;;
10761;SDS011;5433;50.862;4.320;2024-03-23T14:42:04;4.45;;;1.55;;
10761;SDS011;5433;50.862;4.320;2024-03-23T14:44:33;6.03;;;1.80;;
10761;SDS011;5433;50.862;4.320;2024-03-23T14:46:59;4.53;;;1.20;;
10761;SDS011;5433;50.862;4.320;2024-03-23T14:49:25;8.18;;;1.40;;
10761;SDS011;5433;50.862;4.320;2024-03-23T14:51:51;4.07;;;1.20;;
10761;SDS011;5433;50.862;4.320;2024-03-23T14:54:17;3.08;;;1.40;;
10761;SDS011;5433;50.862;4.320;2024-03-23T14:56:43;4.78;;;1.67;;
10761;SDS011;5433;50.862;4.320;2024-03-23T14:59:10;4.10;;;1.42;;
10761;SDS011;5433;50.862;4.320;2024-03-23T15:01:36;6.20;;;1.80;;
10761;SDS011;5433;50.862;4.320;2024-03-23T15:04:02;4.57;;;1.30;;
10761;SDS011;5433;50.862;4.320;2024-03-23T15:06:28;4.13;;;1.30;;
10761;SDS011;5433;50.862;4.320;2024-03-23T15:08:54;3.63;;;1.35;;
10761;SDS011;5433;50.862;4.320;2024-03-23T15:11:21;5.20;;;2.45;;
10761;SDS011;5433;50.862;4.320;2024-03-23T15:13:49;6.03;;;1.90;;
10761;SDS011;5433;50.862;4.320;2024-03-23T15:16:18;3.88;;;1.48;;
10761;SDS011;5433;50.862;4.320;2024-03-23T15:18:47;4.10;;;1.35;;
10761;SDS011;5433;50.862;4.320;2024-03-23T15:21:13;5.20;;;1.60;;
10761;SDS011;5433;50.862;4.320;2024-03-23T15:23:44;4.03;;;1.88;;
10761;SDS011;5433;50.862;4.320;2024-03-23T15:26:10;4.72;;;1.52;;
10761;SDS011;5433;50.862;4.320;2024-03-23T15:28:36;4.55;;;2.63;;
10761;SDS011;5433;50.862;4.320;2024-03-23T15:31:06;5.60;;;1.83;;
10761;SDS011;5433;50.862;4.320;2024-03-23T15:33:33;5.70;;;1.73;;
10761;SDS011;5433;50.862;4.320;2024-03-23T15:35:59;3.78;;;1.30;;
10761;SDS011;5433;50.862;4.320;2024-03-23T15:38:25;5.57;;;1.30;;
10761;SDS011;5433;50.862;4.320;2024-03-23T15:40:52;6.88;;;1.80;;
10761;SDS011;5433;50.862;4.320;2024-03-23T15:43:18;3.95;;;1.42;;
10761;SDS011;5433;50.862;4.320;2024-03-23T15:45:44;5.82;;;1.40;;
10761;SDS011;5433;50.862;4.320;2024-03-23T15:48:10;4.90;;;1.50;;
10761;SDS011;5433;50.862;4.320;2024-03-23T15:50:36;4.20;;;1.50;;
10761;SDS011;5433;50.862;4.320;2024-03-23T15:53:04;5.57;;;1.65;;
10761;SDS011;5433;50.862;4.320;2024-03-23T15:55:31;5.70;;;1.42;;
10761;SDS011;5433;50.862;4.320;2024-03-23T15:58:00;2.80;;;1.25;;
10761;SDS011;5433;50.862;4.320;2024-03-23T16:00:26;5.82;;;1.40;;
10761;SDS011;5433;50.862;4.320;2024-03-23T16:02:53;3.63;;;1.23;;
10761;SDS011;5433;50.862;4.320;2024-03-23T16:05:19;4.18;;;1.40;;
10761;SDS011;5433;50.862;4.320;2024-03-23T16:07:45;5.32;;;1.65;;
10761;SDS011;5433;50.862;4.320;2024-03-23T16:10:11;4.25;;;1.80;;
10761;SDS011;5433;50.862;4.320;2024-03-23T16:12:37;5.07;;;1.77;;
10761;SDS011;5433;50.862;4.320;2024-03-23T16:15:03;4.53;;;1.40;;
10761;SDS011;5433;50.862;4.320;2024-03-23T16:17:30;3.00;;;1.45;;
10761;SDS011;5433;50.862;4.320;2024-03-23T16:20:00;2.90;;;1.35;;
10761;SDS011;5433;50.862;4.320;2024-03-23T16:22:26;3.20;;;1.33;;
10761;SDS011;5433;50.862;4.320;2024-03-23T16:24:52;3.35;;;1.30;;
10761;SDS011;5433;50.862;4.320;2024-03-23T16:27:18;7.25;;;1.60;;
10761;SDS011;5433;50.862;4.320;2024-03-23T16:29:44;5.72;;;1.50;;
10761;SDS011;5433;50.862;4.320;2024-03-23T16:32:10;5.82;;;1.73;;
10761;SDS011;5433;50.862;4.320;2024-03-23T16:34:36;3.08;;;1.20;;
10761;SDS011;5433;50.862;4.320;2024-03-23T16:37:02;4.38;;;1.52;;
10761;SDS011;5433;50.862;4.320;2024-03-23T16:39:28;3.13;;;1.17;;
10761;SDS011;5433;50.862;4.320;2024-03-23T16:41:54;3.67;;;1.40;;
10761;SDS011;5433;50.862;4.320;2024-03-23T16:44:20;3.53;;;1.00;;
10761;SDS011;5433;50.862;4.320;2024-03-23T16:46:46;4.07;;;1.48;;
10761;SDS011;5433;50.862;4.320;2024-03-23T16:49:13;5.28;;;1.20;;
10761;SDS011;5433;50.862;4.320;2024-03-23T16:51:39;4.60;;;1.30;;
10761;SDS011;5433;50.862;4.320;2024-03-23T16:54:05;3.95;;;1.20;;
10761;SDS011;5433;50.862;4.320;2024-03-23T16:56:31;3.25;;;1.20;;
10761;SDS011;5433;50.862;4.320;2024-03-23T16:58:57;3.92;;;1.40;;
10761;SDS011;5433;50.862;4.320;2024-03-23T17:01:23;4.75;;;1.38;;
10761;SDS011;5433;50.862;4.320;2024-03-23T17:03:52;4.50;;;1.40;;
10761;SDS011;5433;50.862;4.320;2024-03-23T17:06:18;3.55;;;1.30;;
10761;SDS011;5433;50.862;4.320;2024-03-23T17:08:45;4.55;;;1.67;;
10761;SDS011;5433;50.862;4.320;2024-03-23T17:11:14;7.72;;;2.85;;
10761;SDS011;5433;50.862;4.320;2024-03-23T17:13:42;8.32;;;4.43;;
10761;SDS011;5433;50.862;4.320;2024-03-23T17:16:08;8.38;;;2.38;;
10761;SDS011;5433;50.862;4.320;2024-03-23T17:18:35;4.93;;;2.00;;
10761;SDS011;5433;50.862;4.320;2024-03-23T17:21:01;6.18;;;1.92;;
10761;SDS011;5433;50.862;4.320;2024-03-23T17:23:29;4.63;;;1.83;;
10761;SDS011;5433;50.862;4.320;2024-03-23T17:25:55;9.60;;;5.85;;
10761;SDS011;5433;50.862;4.320;2024-03-23T17:28:21;9.90;;;3.10;;
10761;SDS011;5433;50.862;4.320;2024-03-23T17:30:49;7.57;;;3.90;;
10761;SDS011;5433;50.862;4.320;2024-03-23T17:33:16;10.98;;;6.82;;
10761;SDS011;5433;50.862;4.320;2024-03-23T17:35:42;5.80;;;3.65;;
10761;SDS011;5433;50.862;4.320;2024-03-23T17:38:08;5.15;;;2.30;;
10761;SDS011;5433;50.862;4.320;2024-03-23T17:40:34;10.07;;;3.65;;
10761;SDS011;5433;50.862;4.320;2024-03-23T17:43:01;9.52;;;3.25;;
10761;SDS011;5433;50.862;4.320;2024-03-23T17:45:30;9.30;;;4.00;;
10761;SDS011;5433;50.862;4.320;2024-03-23T17:47:56;8.15;;;3.88;;
10761;SDS011;5433;50.862;4.320;2024-03-23T17:50:22;10.65;;;5.55;;
10761;SDS011;5433;50.862;4.320;2024-03-23T17:52:51;9.57;;;3.00;;
10761;SDS011;5433;50.862;4.320;2024-03-23T17:55:17;5.28;;;2.05;;
10761;SDS011;5433;50.862;4.320;2024-03-23T17:57:43;5.53;;;3.53;;